Time;durP1;ratioP1;P1;durP2;ratioP2;P2;SDS_P1;SDS_P2;PMS_P1;PMS_P2;Temp;Humidity;BMP_temperature;BMP_pressure;BME280_temperature;BME280_humidity;BME280_pressure;Samples;Min_cycle;Max_cycle;Signal;HPM_P1;HPM_P2
2022/04/08 00:01:40;;;;;;;7.17;1.17;;;6.70;99.90;;;;;;5157474;27;20087;-76
2022/04/08 00:04:07;;;;;;;7.35;0.98;;;6.70;99.90;;;;;;5175835;27;20491;-77
2022/04/08 00:06:33;;;;;;;7.60;1.60;;;6.80;99.90;;;;;;5175986;27;20133;-76
2022/04/08 00:08:59;;;;;;;5.93;1.07;;;6.60;99.90;;;;;;5175982;27;20082;-76
2022/04/08 00:11:25;;;;;;;7.23;1.53;;;6.70;99.90;;;;;;5175533;27;20038;-77
2022/04/08 00:13:53;;;;;;;8.18;1.10;;;6.60;99.90;;;;;;5157432;27;20388;-76
2022/04/08 00:16:20;;;;;;;7.47;1.27;;;6.50;99.90;;;;;;5175546;27;20041;-77
2022/04/08 00:18:46;;;;;;;7.15;1.30;;;6.50;99.90;;;;;;5175795;27;20061;-76
2022/04/08 00:21:13;;;;;;;6.75;1.40;;;6.40;99.90;;;;;;5175572;27;20046;-77
2022/04/08 00:23:39;;;;;;;5.63;1.02;;;6.40;99.90;;;;;;5156813;27;20402;-77
2022/04/08 00:26:05;;;;;;;10.77;2.07;;;6.50;99.90;;;;;;5156379;27;20054;-76
2022/04/08 00:28:31;;;;;;;9.13;1.37;;;6.30;99.90;;;;;;5156616;27;20048;-77
2022/04/08 00:30:57;;;;;;;6.67;1.37;;;6.30;99.90;;;;;;5175781;27;20042;-76
2022/04/08 00:33:23;;;;;;;6.15;1.55;;;6.20;99.90;;;;;;5156971;27;20054;-76
2022/04/08 00:35:48;;;;;;;7.77;1.20;;;6.20;99.90;;;;;;5156835;27;20393;-76
2022/04/08 00:38:15;;;;;;;10.57;1.40;;;;;;;;;;5175326;27;20367;-76
2022/04/08 00:40:41;;;;;;;6.88;1.65;;;;;;;;;;5175362;27;20129;-76
2022/04/08 00:43:12;;;;;;;12.75;2.10;;;6.30;99.90;;;;;;5175403;27;20038;-75
2022/04/08 00:45:38;;;;;;;14.48;2.10;;;6.30;99.90;;;;;;5175584;27;20046;-75
2022/04/08 00:48:07;;;;;;;12.07;1.63;;;6.20;99.90;;;;;;5175161;27;20428;-76
2022/04/08 00:50:35;;;;;;;9.05;1.70;;;6.10;99.90;;;;;;5156802;27;20166;-77
2022/04/08 00:53:01;;;;;;;8.60;1.83;;;6.00;99.90;;;;;;5175387;27;20493;-77
2022/04/08 00:55:27;;;;;;;8.73;1.40;;;6.00;99.90;;;;;;5175124;27;20043;-77
2022/04/08 00:57:53;;;;;;;11.53;2.00;;;5.90;99.90;;;;;;5175456;27;20054;-77
2022/04/08 01:00:22;;;;;;;14.30;1.77;;;5.90;99.90;;;;;;5174761;27;20554;-78
2022/04/08 01:02:48;;;;;;;6.65;1.60;;;5.80;99.90;;;;;;5157108;27;20069;-77
2022/04/08 01:05:14;;;;;;;10.23;1.50;;;5.90;99.90;;;;;;5175008;27;20039;-78
2022/04/08 01:07:40;;;;;;;8.30;1.77;;;5.90;99.90;;;;;;5175376;27;20042;-78
2022/04/08 01:10:06;;;;;;;11.23;2.00;;;5.90;99.90;;;;;;5175390;27;20038;-78
2022/04/08 01:12:32;;;;;;;9.07;1.30;;;5.90;99.90;;;;;;5174785;27;20838;-78
2022/04/08 01:15:00;;;;;;;11.23;2.13;;;5.90;99.90;;;;;;5175254;27;20102;-78
2022/04/08 01:17:27;;;;;;;12.55;1.90;;;5.90;99.90;;;;;;5174887;27;20045;-79
2022/04/08 01:19:53;;;;;;;10.43;1.70;;;5.90;99.90;;;;;;5139820;27;20079;-78
2022/04/08 01:22:19;;;;;;;8.63;2.00;;;6.00;99.90;;;;;;5174785;27;20039;-79
2022/04/08 01:24:51;;;;;;;8.02;1.92;;;5.90;99.90;;;;;;5156477;27;20743;-79
2022/04/08 01:27:19;;;;;;;11.00;1.67;;;5.90;99.90;;;;;;5174521;27;20493;-79
2022/04/08 01:29:45;;;;;;;10.57;2.10;;;5.90;99.90;;;;;;5175157;27;20042;-78
2022/04/08 01:32:11;;;;;;;10.15;1.80;;;5.90;99.90;;;;;;5156549;27;20398;-78
2022/04/08 01:34:37;;;;;;;13.17;1.73;;;5.90;99.90;;;;;;5138862;27;20042;-78
2022/04/08 01:37:02;;;;;;;10.70;1.80;;;5.80;99.90;;;;;;5175376;27;20047;-78
2022/04/08 01:39:28;;;;;;;10.37;1.53;;;5.80;99.90;;;;;;5155805;27;20482;-78
2022/04/08 01:41:54;;;;;;;13.80;2.17;;;5.80;99.90;;;;;;5174874;27;20043;-78
2022/04/08 01:44:19;;;;;;;10.97;1.80;;;5.80;99.90;;;;;;5156332;27;20046;-79
2022/04/08 01:46:45;;;;;;;12.80;2.53;;;5.80;99.90;;;;;;5177582;27;20042;-77
2022/04/08 01:49:11;;;;;;;12.93;2.13;;;5.80;99.90;;;;;;5159540;27;20049;-78
2022/04/08 01:51:36;;;;;;;11.47;2.97;;;5.80;99.90;;;;;;5160045;27;20485;-78
2022/04/08 01:54:02;;;;;;;11.07;2.27;;;5.80;99.90;;;;;;5160119;27;20125;-78
2022/04/08 01:56:28;;;;;;;16.33;2.63;;;5.80;99.90;;;;;;5159693;27;20488;-78
2022/04/08 01:58:53;;;;;;;12.17;1.90;;;5.80;99.90;;;;;;5178755;27;20168;-78
2022/04/08 02:01:19;;;;;;;13.67;2.27;;;5.80;99.90;;;;;;5159596;27;20430;-78
2022/04/08 02:03:45;;;;;;;14.33;2.10;;;5.70;99.90;;;;;;5178385;27;20090;-78
2022/04/08 02:06:10;;;;;;;14.00;2.40;;;5.70;99.90;;;;;;5159794;27;20077;-78
2022/04/08 02:08:36;;;;;;;17.33;2.43;;;5.70;99.90;;;;;;5177920;27;20123;-78
2022/04/08 02:11:02;;;;;;;15.17;2.80;;;5.70;99.90;;;;;;5178185;27;20371;-76
2022/04/08 02:13:27;;;;;;;14.33;2.30;;;5.80;99.90;;;;;;5159386;27;20161;-75
2022/04/08 02:15:53;;;;;;;10.23;1.93;;;5.70;99.90;;;;;;5159627;27;20104;-75
2022/04/08 02:18:19;;;;;;;9.43;1.50;;;5.60;99.90;;;;;;5178038;27;20466;-79
2022/04/08 02:20:44;;;;;;;11.07;3.00;;;5.50;99.90;;;;;;5178061;27;20038;-76
2022/04/08 02:23:10;;;;;;;10.50;1.90;;;5.50;99.90;;;;;;5178105;27;20038;-77
2022/04/08 02:25:36;;;;;;;14.33;2.13;;;5.40;99.90;;;;;;5177488;27;20521;-77
2022/04/08 02:28:03;;;;;;;11.07;2.27;;;5.40;99.90;;;;;;5177895;27;20054;-77
2022/04/08 02:30:29;;;;;;;11.20;1.98;;;5.50;99.90;;;;;;5177459;27;20171;-78
2022/04/08 02:32:57;;;;;;;12.37;1.80;;;5.50;99.90;;;;;;5158435;27;20537;-77
2022/04/08 02:35:23;;;;;;;14.43;2.47;;;5.50;99.90;;;;;;5177425;27;20270;-79
2022/04/08 02:37:48;;;;;;;11.23;2.17;;;5.50;99.90;;;;;;5177682;27;20129;-77
2022/04/08 02:40:14;;;;;;;13.00;2.53;;;5.50;99.90;;;;;;5177606;27;20042;-77
2022/04/08 02:42:40;;;;;;;8.57;1.70;;;5.50;99.90;;;;;;5177260;27;20042;-77
2022/04/08 02:45:06;;;;;;;12.80;2.57;;;5.50;99.90;;;;;;5159217;27;20046;-77
2022/04/08 02:47:38;;;;;;;19.58;2.90;;;5.50;99.90;;;;;;5158674;27;20047;-77
2022/04/08 02:50:05;;;;;;;21.48;3.45;;;5.50;99.90;;;;;;5159273;27;20042;-76
2022/04/08 02:52:30;;;;;;;18.05;3.33;;;5.50;99.90;;;;;;5177184;27;20046;-77
2022/04/08 02:54:56;;;;;;;19.60;2.93;;;5.50;99.90;;;;;;5177109;27;20049;-77
2022/04/08 02:57:21;;;;;;;15.60;2.73;;;5.50;99.90;;;;;;5159047;27;20049;-77
2022/04/08 02:59:50;;;;;;;16.27;2.80;;;5.60;99.90;;;;;;5176657;27;20042;-76
2022/04/08 03:02:16;;;;;;;15.90;2.45;;;5.60;99.90;;;;;;5177172;27;20077;-76
2022/04/08 03:04:41;;;;;;;19.47;2.90;;;5.60;99.90;;;;;;5158303;27;20126;-76
2022/04/08 03:07:07;;;;;;;18.07;2.60;;;5.60;99.90;;;;;;5177589;27;20053;-76
2022/04/08 03:09:33;;;;;;;13.20;2.23;;;5.60;99.90;;;;;;5176788;27;20478;-76
2022/04/08 03:11:58;;;;;;;16.13;2.53;;;5.70;99.90;;;;;;5177220;27;20389;-76
2022/04/08 03:14:24;;;;;;;17.53;2.57;;;5.70;99.90;;;;;;5177127;27;20150;-76
2022/04/08 03:16:50;;;;;;;14.40;2.63;;;5.70;99.90;;;;;;5176615;27;20049;-77
2022/04/08 03:19:18;;;;;;;18.20;3.10;;;5.70;99.90;;;;;;5176863;27;20470;-76
2022/04/08 03:21:44;;;;;;;15.27;3.10;;;5.70;99.90;;;;;;5176474;27;20061;-77
2022/04/08 03:24:10;;;;;;;18.30;2.47;;;5.70;99.90;;;;;;5176805;27;20039;-77
2022/04/08 03:26:37;;;;;;;18.67;3.13;;;5.70;99.90;;;;;;5176099;27;20057;-77
2022/04/08 03:29:02;;;;;;;6.75;1.27;;;5.70;99.90;;;;;;5176665;27;20051;-76
2022/04/08 03:31:29;;;;;;;5.27;1.20;;;5.70;99.90;;;;;;5176454;27;20046;-78
2022/04/08 03:33:55;;;;;;;7.30;1.35;;;5.60;99.90;;;;;;5176568;27;20035;-75
2022/04/08 03:36:21;;;;;;;3.57;1.33;;;5.40;99.90;;;;;;5176529;27;20053;-75
2022/04/08 03:38:46;;;;;;;6.87;1.30;;;5.10;99.90;;;;;;5176024;27;20039;-76
2022/04/08 03:41:12;;;;;;;5.87;1.30;;;;;;;;;;5176391;27;20065;-76
2022/04/08 03:43:38;;;;;;;3.13;0.80;;;5.00;99.90;;;;;;5176013;27;20130;-77
2022/04/08 03:46:04;;;;;;;2.90;0.90;;;4.80;99.90;;;;;;5176677;27;20121;-77
2022/04/08 03:48:30;;;;;;;3.00;1.00;;;4.80;99.90;;;;;;5176134;27;20129;-79
2022/04/08 03:50:55;;;;;;;2.93;0.70;;;4.80;99.90;;;;;;5157650;27;20057;-77
2022/04/08 03:53:21;;;;;;;3.27;1.00;;;4.80;99.90;;;;;;5140540;27;20390;-76
2022/04/08 03:55:47;;;;;;;5.57;0.90;;;4.80;99.90;;;;;;5175778;27;20449;-76
2022/04/08 03:58:13;;;;;;;3.53;1.30;;;4.70;99.90;;;;;;5159762;27;20073;-76
2022/04/08 04:00:39;;;;;;;3.70;1.00;;;4.70;99.90;;;;;;5175485;27;20494;-76
2022/04/08 04:03:05;;;;;;;2.85;1.10;;;4.70;99.90;;;;;;5176122;27;20085;-76
2022/04/08 04:05:34;;;;;;;4.22;0.98;;;4.70;99.90;;;;;;5176044;27;20052;-76
2022/04/08 04:08:01;;;;;;;5.97;1.58;;;4.70;99.90;;;;;;5176047;27;20546;-76
2022/04/08 04:10:27;;;;;;;5.85;0.80;;;4.70;99.90;;;;;;5156836;27;20129;-76
2022/04/08 04:12:53;;;;;;;6.37;1.40;;;4.60;99.90;;;;;;5175293;27;20070;-76
2022/04/08 04:15:20;;;;;;;3.50;0.80;;;4.70;99.90;;;;;;5157700;27;20050;-76
2022/04/08 04:17:46;;;;;;;2.88;1.33;;;4.70;99.90;;;;;;5175512;27;20038;-76
2022/04/08 04:20:12;;;;;;;5.03;1.03;;;4.70;99.90;;;;;;5175767;27;20046;-76
2022/04/08 04:22:38;;;;;;;8.60;1.13;;;4.70;99.90;;;;;;5175407;27;20042;-77
2022/04/08 04:25:05;;;;;;;6.93;1.50;;;4.70;99.90;;;;;;5175497;27;20129;-77
2022/04/08 04:27:30;;;;;;;5.00;1.08;;;4.70;99.90;;;;;;5175755;27;20078;-76
2022/04/08 04:29:56;;;;;;;9.07;1.80;;;4.70;99.90;;;;;;5175355;27;20046;-76
2022/04/08 04:32:22;;;;;;;9.00;1.50;;;4.70;99.90;;;;;;5175688;27;20045;-77
2022/04/08 04:34:48;;;;;;;11.30;1.60;;;4.80;99.90;;;;;;5157043;27;20065;-77
2022/04/08 04:37:14;;;;;;;7.95;1.67;;;4.80;99.90;;;;;;5175636;27;20153;-77
2022/04/08 04:39:40;;;;;;;7.33;1.60;;;4.80;99.90;;;;;;5175465;27;20082;-77
2022/04/08 04:42:07;;;;;;;6.60;1.27;;;4.90;99.90;;;;;;5175797;27;20041;-77
2022/04/08 04:44:34;;;;;;;8.48;1.40;;;4.90;99.90;;;;;;5175633;27;20072;-77
2022/04/08 04:47:00;;;;;;;5.43;1.27;;;4.90;99.90;;;;;;5175178;27;20046;-77
2022/04/08 04:49:26;;;;;;;6.68;1.33;;;4.90;99.90;;;;;;5156963;27;20073;-77
2022/04/08 04:51:52;;;;;;;7.73;1.37;;;4.90;99.90;;;;;;5175249;27;20046;-77
2022/04/08 04:54:18;;;;;;;7.38;1.42;;;4.90;99.90;;;;;;5175652;27;20121;-77
2022/04/08 04:56:44;;;;;;;4.00;1.27;;;4.90;99.90;;;;;;5139518;27;20130;-76
2022/04/08 04:59:11;;;;;;;5.87;1.37;;;4.90;99.90;;;;;;5175618;27;20069;-77
2022/04/08 05:01:36;;;;;;;6.45;1.30;;;4.90;99.90;;;;;;5175442;27;20078;-77
2022/04/08 05:04:02;;;;;;;3.87;1.30;;;4.90;99.90;;;;;;5174737;27;20085;-77
2022/04/08 05:06:28;;;;;;;5.73;1.50;;;4.90;99.90;;;;;;5175463;27;20052;-77
2022/04/08 05:08:54;;;;;;;4.20;1.10;;;5.00;99.90;;;;;;5174938;27;20053;-77
2022/04/08 05:11:19;;;;;;;6.03;1.53;;;5.00;99.90;;;;;;5175277;27;20046;-77
2022/04/08 05:13:45;;;;;;;4.13;1.13;;;5.00;99.90;;;;;;5174915;27;20042;-78
2022/04/08 05:16:11;;;;;;;6.53;1.17;;;4.90;99.90;;;;;;5139557;27;20077;-77
2022/04/08 05:18:37;;;;;;;11.10;1.97;;;5.00;99.90;;;;;;5156623;27;20071;-77
2022/04/08 05:21:03;;;;;;;7.55;1.40;;;4.90;99.90;;;;;;5174934;27;20050;-77
2022/04/08 05:23:29;;;;;;;5.20;1.60;;;4.90;99.90;;;;;;5160067;27;20484;-77
2022/04/08 05:25:58;;;;;;;8.33;1.60;;;4.80;99.90;;;;;;5178872;27;20054;-77
2022/04/08 05:28:24;;;;;;;6.43;1.95;;;4.80;99.90;;;;;;5179037;27;20050;-77
2022/04/08 05:30:50;;;;;;;8.30;1.50;;;4.80;99.90;;;;;;5178362;27;20554;-77
2022/04/08 05:33:16;;;;;;;7.37;1.83;;;4.80;99.90;;;;;;5179001;27;20043;-77
2022/04/08 05:35:42;;;;;;;7.73;1.80;;;5.00;99.90;;;;;;5178671;27;20694;-81
2022/04/08 05:38:08;;;;;;;9.65;1.80;;;5.00;99.90;;;;;;5178921;27;20046;-78
2022/04/08 05:40:33;;;;;;;6.40;1.50;;;5.10;99.90;;;;;;5178886;27;20492;-77
2022/04/08 05:42:59;;;;;;;10.63;1.80;;;5.10;99.90;;;;;;5159689;27;20046;-78
2022/04/08 05:45:25;;;;;;;7.57;1.40;;;5.20;99.90;;;;;;5160210;27;20057;-77
2022/04/08 05:47:52;;;;;;;8.67;1.80;;;5.30;99.90;;;;;;5142843;27;20046;-78
2022/04/08 05:50:19;;;;;;;7.57;1.92;;;5.40;99.90;;;;;;5178686;27;20042;-78
2022/04/08 05:52:47;;;;;;;8.90;1.60;;;5.40;99.90;;;;;;5159913;27;20553;-79
2022/04/08 05:55:13;;;;;;;9.73;1.63;;;5.40;99.90;;;;;;5178288;27;20526;-77
2022/04/08 05:57:42;;;;;;;6.72;1.45;;;5.50;99.90;;;;;;5159873;27;20506;-77
2022/04/08 06:00:10;;;;;;;11.45;1.83;;;5.50;99.90;;;;;;5178191;27;20038;-78
2022/04/08 06:02:39;;;;;;;10.68;2.05;;;5.60;99.90;;;;;;5178411;27;20503;-78
2022/04/08 06:05:06;;;;;;;9.02;1.75;;;5.70;99.90;;;;;;5159700;27;20974;-78
2022/04/08 06:07:31;;;;;;;8.43;1.70;;;5.80;99.90;;;;;;5180987;27;20042;-76
2022/04/08 06:10:00;;;;;;;6.60;1.50;;;5.90;99.90;;;;;;5178444;27;20046;-77
2022/04/08 06:12:26;;;;;;;6.28;1.60;;;6.00;99.90;;;;;;5160234;27;20048;-77
2022/04/08 06:14:53;;;;;;;8.80;1.40;;;6.00;99.90;;;;;;5142336;27;20133;-78
2022/04/08 06:17:19;;;;;;;6.95;1.50;;;6.00;99.90;;;;;;5178195;27;20279;-77
2022/04/08 06:19:45;;;;;;;5.50;1.63;;;6.00;99.90;;;;;;5177765;27;20069;-77
2022/04/08 06:22:11;;;;;;;8.75;1.92;;;6.00;99.90;;;;;;5159297;27;20303;-78
2022/04/08 06:24:37;;;;;;;9.77;1.50;;;6.00;99.90;;;;;;5159689;27;20053;-78
2022/04/08 06:27:03;;;;;;;6.10;1.50;;;6.00;99.90;;;;;;5177875;27;20058;-77
2022/04/08 06:29:28;;;;;;;10.50;1.50;;;5.90;99.90;;;;;;5159551;27;20404;-78
2022/04/08 06:31:54;;;;;;;10.40;1.87;;;;;;;;;;5177363;27;20499;-78
2022/04/08 06:34:21;;;;;;;8.98;2.15;;;;;;;;;;5158751;27;20038;-78
2022/04/08 06:36:46;;;;;;;6.00;1.60;;;8.50;99.90;;;;;;5177852;27;20057;-79
2022/04/08 06:39:12;;;;;;;7.20;1.83;;;10.00;99.90;;;;;;5159102;27;20043;-79
2022/04/08 06:41:37;;;;;;;7.37;1.50;;;11.20;99.90;;;;;;5177733;27;20077;-80
2022/04/08 06:44:03;;;;;;;5.03;1.60;;;12.30;99.90;;;;;;5158741;27;20046;-79
2022/04/08 06:46:29;;;;;;;8.00;1.30;;;12.80;99.90;;;;;;5159237;27;20385;-79
2022/04/08 06:48:56;;;;;;;8.77;1.63;;;11.30;99.90;;;;;;5177245;27;20138;-79
2022/04/08 06:51:22;;;;;;;9.10;1.80;;;11.20;99.90;;;;;;5177533;27;20046;-78
2022/04/08 06:53:48;;;;;;;10.20;1.80;;;10.30;99.90;;;;;;5177544;27;20363;-77
2022/04/08 06:56:14;;;;;;;6.30;1.50;;;;;;;;;;5158653;27;20489;-78
2022/04/08 06:58:39;;;;;;;6.03;2.00;;;9.10;99.90;;;;;;5177045;27;20525;-78
2022/04/08 07:01:07;;;;;;;7.80;1.60;;;8.60;99.90;;;;;;5158397;27;20311;-79
2022/04/08 07:03:33;;;;;;;7.90;2.20;;;9.10;99.90;;;;;;5177263;27;20031;-78
2022/04/08 07:05:58;;;;;;;9.57;2.00;;;10.80;99.90;;;;;;5176881;27;20817;-79
2022/04/08 07:08:24;;;;;;;7.27;1.73;;;12.70;99.90;;;;;;5176869;27;20355;-79
2022/04/08 07:10:50;;;;;;;9.73;1.90;;;13.10;99.90;;;;;;5176844;27;20076;-83
2022/04/08 07:13:15;;;;;;;8.43;1.80;;;13.20;99.90;;;;;;5158467;27;20049;-78
2022/04/08 07:15:41;;;;;;;9.83;2.23;;;13.40;99.90;;;;;;5177012;27;20099;-78
2022/04/08 07:18:07;;;;;;;7.40;1.73;;;12.80;99.70;;;;;;5140784;27;20042;-78
2022/04/08 07:20:33;;;;;;;7.03;1.80;;;11.80;99.90;;;;;;5177056;27;20049;-78
2022/04/08 07:23:01;;;;;;;7.73;1.60;;;11.00;99.90;;;;;;5176488;27;20121;-80
2022/04/08 07:25:28;;;;;;;8.93;1.80;;;10.30;99.90;;;;;;5176576;27;20137;-78
2022/04/08 07:27:58;;;;;;;8.70;2.17;;;9.70;99.90;;;;;;5176763;27;20271;-78
2022/04/08 07:30:25;;;;;;;11.37;2.53;;;9.70;99.90;;;;;;5176681;27;20271;-79
2022/04/08 07:32:54;;;;;;;9.67;2.23;;;11.00;99.90;;;;;;5158363;27;20358;-79
2022/04/08 07:35:33;;;;;;;8.00;1.93;;;12.70;99.90;;;;;;5176416;27;20358;-80
2022/04/08 07:38:00;;;;;;;7.83;1.70;;;14.40;95.60;;;;;;5176323;27;20275;-80
2022/04/08 07:40:26;;;;;;;7.43;1.70;;;15.90;94.20;;;;;;5176544;27;20303;-80
2022/04/08 07:42:52;;;;;;;6.07;1.70;;;16.90;84.60;;;;;;5176394;27;20298;-79
2022/04/08 07:45:18;;;;;;;7.67;1.60;;;17.80;77.60;;;;;;5175204;27;20366;-80
2022/04/08 07:47:44;;;;;;;4.93;1.33;;;18.40;72.40;;;;;;5176395;27;20275;-80
2022/04/08 07:50:12;;;;;;;6.87;2.00;;;18.80;67.20;;;;;;5175734;27;20401;-80
2022/04/08 07:52:39;;;;;;;6.83;1.67;;;19.20;64.00;;;;;;5176340;27;20060;-80
2022/04/08 07:55:06;;;;;;;4.90;1.53;;;19.30;62.60;;;;;;5176014;27;20046;-81
2022/04/08 07:57:32;;;;;;;5.17;1.50;;;18.60;60.70;;;;;;5176250;27;20098;-79
2022/04/08 07:59:58;;;;;;;5.60;1.60;;;;;;;;;;5157587;27;20050;-83
2022/04/08 08:02:26;;;;;;;7.50;1.40;;;16.40;59.90;;;;;;5176020;27;20129;-78
2022/04/08 08:04:52;;;;;;;5.97;1.50;;;15.50;62.90;;;;;;5176118;27;20076;-79
2022/04/08 08:07:18;;;;;;;3.90;1.60;;;14.90;63.70;;;;;;5175465;27;20771;-81
2022/04/08 08:09:44;;;;;;;7.97;1.40;;;;;;;;;;5175964;27;20046;-79
2022/04/08 08:12:10;;;;;;;7.97;1.37;;;13.60;66.50;;;;;;5175760;27;20397;-79
2022/04/08 08:14:36;;;;;;;7.53;2.07;;;13.50;66.90;;;;;;5176007;27;20125;-78
2022/04/08 08:17:02;;;;;;;7.93;1.57;;;;;;;;;;5175695;27;20045;-80
2022/04/08 08:19:28;;;;;;;8.20;1.60;;;12.90;68.60;;;;;;5178094;27;20042;-78
2022/04/08 08:21:54;;;;;;;6.43;1.40;;;;;;;;;;5175828;27;20287;-74
2022/04/08 08:24:20;;;;;;;6.23;1.70;;;12.50;70.20;;;;;;5175426;27;20311;-75
2022/04/08 08:26:46;;;;;;;6.40;1.60;;;12.40;71.70;;;;;;5153785;27;20319;-78
2022/04/08 08:29:12;;;;;;;6.50;1.20;;;12.20;71.60;;;;;;5153579;27;20042;-78
2022/04/08 08:31:38;;;;;;;4.93;1.50;;;11.90;73.50;;;;;;5153820;27;20050;-76
2022/04/08 08:34:04;;;;;;;10.20;2.07;;;11.70;74.10;;;;;;5154552;27;20272;-77
2022/04/08 08:36:30;;;;;;;7.13;1.37;;;11.60;76.20;;;;;;5153719;27;20125;-76
2022/04/08 08:38:55;;;;;;;5.13;1.40;;;11.50;77.20;;;;;;5154799;27;20242;-75
2022/04/08 08:41:23;;;;;;;8.93;1.63;;;11.30;78.50;;;;;;5152606;27;20042;-82
2022/04/08 08:43:52;;;;;;;8.43;1.83;;;11.20;78.00;;;;;;5154800;27;20050;-82
2022/04/08 08:46:19;;;;;;;9.07;1.70;;;11.10;78.40;;;;;;5154476;27;20756;-81
2022/04/08 08:48:46;;;;;;;6.83;1.63;;;11.10;78.30;;;;;;5153800;27;20284;-81
2022/04/08 08:51:13;;;;;;;7.00;1.70;;;11.00;80.60;;;;;;5154382;27;20276;-81
2022/04/08 08:53:41;;;;;;;8.43;2.00;;;10.90;81.90;;;;;;5153846;27;20325;-80
2022/04/08 08:56:07;;;;;;;9.50;1.40;;;10.70;84.00;;;;;;5153132;27;20276;-79
2022/04/08 08:58:34;;;;;;;11.97;1.47;;;10.70;85.60;;;;;;5158707;27;20283;-86
2022/04/08 09:01:00;;;;;;;10.53;1.90;;;10.70;87.00;;;;;;5158308;27;20393;-86
2022/04/08 09:03:29;;;;;;;8.47;1.50;;;10.70;89.00;;;;;;5158361;27;20296;-82
2022/04/08 09:06:05;;;;;;;7.30;1.80;;;10.70;90.30;;;;;;5158890;27;20325;-82
2022/04/08 09:08:35;;;;;;;8.17;1.83;;;10.80;90.80;;;;;;5157570;27;20834;-81
2022/04/08 09:11:01;;;;;;;5.80;1.60;;;10.80;91.00;;;;;;5158713;27;20280;-81
2022/04/08 09:13:28;;;;;;;9.47;1.77;;;10.90;90.60;;;;;;5158241;27;20268;-82
2022/04/08 09:15:55;;;;;;;7.77;1.87;;;10.80;90.80;;;;;;5158517;27;20279;-83
2022/04/08 09:18:21;;;;;;;13.00;2.03;;;10.70;90.50;;;;;;5158176;27;20286;-81
2022/04/08 09:20:49;;;;;;;10.37;1.97;;;10.60;91.00;;;;;;5158698;27;20362;-80
2022/04/08 09:23:17;;;;;;;9.43;1.50;;;10.60;91.30;;;;;;5158128;27;20478;-81
2022/04/08 09:25:43;;;;;;;10.20;1.80;;;10.50;90.20;;;;;;5164943;27;20724;-82
2022/04/08 09:28:11;;;;;;;7.90;1.90;;;;;;;;;;5178833;27;20275;-82
2022/04/08 09:30:37;;;;;;;10.73;1.67;;;;;;;;;;5179281;27;20294;-82
2022/04/08 09:33:19;;;;;;;11.17;2.00;;;;;;;;;;5179089;27;20271;-82
2022/04/08 09:35:45;;;;;;;7.23;1.70;;;;;;;;;;5179219;27;20268;-81
2022/04/08 09:38:12;;;;;;;6.20;1.30;;;;;;;;;;5178628;27;20653;-82
2022/04/08 09:40:39;;;;;;;7.63;1.70;;;;;;;;;;5178828;27;20295;-86
2022/04/08 09:43:05;;;;;;;8.77;1.80;;;10.40;99.90;;;;;;5178804;27;20295;-85
2022/04/08 09:45:32;;;;;;;6.83;1.40;;;10.40;99.90;;;;;;5178479;27;20282;-86
2022/04/08 09:47:59;;;;;;;7.53;1.80;;;10.40;99.90;;;;;;5178741;27;20312;-77
2022/04/08 09:50:26;;;;;;;7.97;1.47;;;10.30;99.90;;;;;;5178291;27;20367;-78
2022/04/08 09:52:53;;;;;;;5.73;1.40;;;10.30;99.90;;;;;;5178602;27;20275;-77
2022/04/08 09:55:21;;;;;;;7.70;1.40;;;10.30;99.90;;;;;;5178323;27;20279;-81
2022/04/08 09:57:50;;;;;;;7.77;1.90;;;10.30;99.90;;;;;;5178553;27;20310;-75
2022/04/08 10:00:16;;;;;;;9.47;1.63;;;10.50;99.90;;;;;;5178247;27;20362;-81
2022/04/08 10:02:46;;;;;;;6.90;1.57;;;10.60;99.90;;;;;;5142400;27;20300;-79
2022/04/08 10:05:12;;;;;;;7.63;1.77;;;;;;;;;;5178415;27;20275;-85
2022/04/08 10:07:44;;;;;;;8.53;2.03;;;;;;;;;;5160064;27;20319;-79
2022/04/08 10:10:16;;;;;;;7.43;2.40;;;;;;;;;;5177545;27;20271;-85
2022/04/08 10:13:01;;;;;;;6.33;1.90;;;;;;;;;;5159734;27;20356;-85
2022/04/08 10:15:37;;;;;;;8.68;1.73;;;;;;;;;;5177967;27;20759;-80
2022/04/08 10:18:04;;;;;;;8.47;2.00;;;;;;;;;;5178129;27;20046;-77
2022/04/08 10:20:31;;;;;;;8.17;1.73;;;;;;;;;;5177885;27;20278;-80
2022/04/08 10:23:04;;;;;;;8.40;1.40;;;;;;;;;;5159419;27;20300;-80
2022/04/08 10:25:35;;;;;;;6.60;1.50;;;;;;;;;;5177592;27;20291;-79
2022/04/08 10:28:01;;;;;;;9.57;1.30;;;;;;;;;;5159587;27;20797;-79
2022/04/08 10:30:27;;;;;;;7.07;1.33;;;;;;;;;;5160451;27;20302;-78
2022/04/08 10:33:06;;;;;;;4.87;1.37;;;10.70;99.90;;;;;;5159445;27;20272;-79
2022/04/08 10:35:32;;;;;;;8.13;1.47;;;;;;;;;;5159323;27;20279;-78
2022/04/08 10:38:03;;;;;;;4.27;1.50;;;10.00;91.00;;;;;;5177929;27;20311;-78
2022/04/08 10:40:40;;;;;;;4.97;1.47;;;9.80;95.00;;;;;;5177404;27;20276;-77
2022/04/08 10:43:08;;;;;;;6.17;1.73;;;9.50;97.10;;;;;;5159413;27;20300;-86
2022/04/08 10:45:34;;;;;;;5.50;1.10;;;9.20;99.80;;;;;;5177354;27;20287;-84
2022/04/08 10:48:09;;;;;;;4.93;1.07;;;9.00;99.90;;;;;;5177633;27;20271;-79
2022/04/08 10:50:35;;;;;;;4.25;1.10;;;9.00;99.90;;;;;;5158780;27;20290;-79
2022/04/08 10:53:12;;;;;;;6.67;1.60;;;8.90;99.90;;;;;;5177421;27;20390;-75
2022/04/08 10:55:55;;;;;;;8.03;1.50;;;8.80;99.90;;;;;;5177045;27;20046;-76
2022/04/08 10:58:41;;;;;;;9.87;1.43;;;8.90;99.90;;;;;;5177057;27;20312;-77
2022/04/08 11:01:23;;;;;;;6.20;1.48;;;9.00;99.90;;;;;;5177497;27;20638;-81
2022/04/08 11:03:59;;;;;;;5.53;1.33;;;9.20;99.90;;;;;;5158416;27;20045;-82
2022/04/08 11:06:25;;;;;;;;;;;9.40;99.90;;;;;;5177485;27;20271;-77
2022/04/08 11:08:51;;;;;;;7.37;1.53;;;9.60;99.90;;;;;;5177144;27;20358;-77
2022/04/08 11:11:27;;;;;;;7.80;1.70;;;9.70;99.90;;;;;;5158522;27;20278;-78
2022/04/08 11:13:57;;;;;;;7.20;1.77;;;;;;;;;;5177304;27;20133;-78
2022/04/08 11:16:23;;;;;;;9.90;1.80;;;;;;;;;;5157889;27;20283;-80
2022/04/08 11:18:49;;;;;;;5.50;1.50;;;;;;;;;;5176985;27;20834;-80
2022/04/08 11:21:18;;;;;;;6.93;1.50;;;;;;;;;;5158268;27;20283;-81
2022/04/08 11:23:44;;;;;;;8.30;1.80;;;;;;;;;;5176607;27;20306;-77
2022/04/08 11:26:11;;;;;;;13.33;1.70;;;;;;;;;;5176953;27;20296;-81
2022/04/08 11:28:37;;;;;;;5.27;1.20;;;;;;;;;;5176461;27;20284;-87
2022/04/08 11:31:03;;;;;;;6.77;1.67;;;10.10;96.70;;;;;;5158643;27;20283;-87
2022/04/08 11:33:31;;;;;;;8.57;1.43;;;10.00;97.10;;;;;;5176363;27;20283;-86
2022/04/08 11:36:00;;;;;;;5.00;1.00;;;10.10;96.80;;;;;;5176592;27;20038;-87
2022/04/08 11:38:28;;;;;;;5.77;1.40;;;10.00;96.00;;;;;;5157663;27;20284;-86
2022/04/08 11:40:54;;;;;;;5.10;1.17;;;10.00;96.00;;;;;;5176588;27;20830;-83
2022/04/08 11:43:21;;;;;;;8.97;1.40;;;10.10;95.50;;;;;;5176336;27;20295;-79
2022/04/08 11:45:52;;;;;;;11.00;1.33;;;10.10;95.60;;;;;;5157521;27;20338;-78
2022/04/08 11:48:20;;;;;;;9.87;1.90;;;10.10;95.50;;;;;;5176411;27;20283;-76
2022/04/08 11:50:47;;;;;;;8.43;1.50;;;10.20;99.90;;;;;;5157706;27;20283;-80
2022/04/08 11:53:18;;;;;;;9.17;1.70;;;10.20;99.90;;;;;;5176333;27;20314;-81
2022/04/08 11:55:59;;;;;;;7.97;1.30;;;10.20;99.90;;;;;;5175601;27;20775;-73
2022/04/08 11:58:27;;;;;;;7.83;1.50;;;10.10;98.20;;;;;;5140706;27;20440;-85
2022/04/08 12:00:53;;;;;;;7.73;1.67;;;9.90;98.80;;;;;;5176287;27;20658;-77
2022/04/08 12:03:23;;;;;;;6.13;1.23;;;9.90;97.80;;;;;;5176028;27;20581;-77
2022/04/08 12:05:50;;;;;;;9.53;1.87;;;10.00;98.40;;;;;;5175728;27;20283;-72
2022/04/08 12:08:17;;;;;;;7.83;1.53;;;10.00;97.20;;;;;;5175688;27;20796;-81
2022/04/08 12:10:44;;;;;;;6.53;1.40;;;10.00;96.50;;;;;;5156967;27;20315;-82
2022/04/08 12:13:21;;;;;;;7.37;1.37;;;10.10;95.80;;;;;;5175719;27;20366;-83
2022/04/08 12:15:49;;;;;;;7.23;1.40;;;10.10;95.10;;;;;;5175092;27;20280;-83
2022/04/08 12:18:23;;;;;;;8.17;1.57;;;10.00;94.30;;;;;;5174461;27;20283;-83
2022/04/08 12:20:59;;;;;;;9.37;1.50;;;10.00;95.00;;;;;;5175563;27;20290;-83
2022/04/08 12:23:26;;;;;;;7.27;1.60;;;10.10;95.20;;;;;;5175622;27;20320;-83
2022/04/08 12:25:59;;;;;;;6.37;1.20;;;10.10;96.10;;;;;;5156900;27;20299;-83
2022/04/08 12:28:30;;;;;;;8.10;1.90;;;10.10;94.80;;;;;;5176013;27;20272;-83
2022/04/08 12:30:56;;;;;;;8.97;1.83;;;10.00;94.90;;;;;;5157735;27;20280;-83
2022/04/08 12:33:21;;;;;;;10.97;1.80;;;9.90;94.90;;;;;;5175370;27;20358;-83
2022/04/08 12:35:48;;;;;;;9.80;1.63;;;9.90;94.20;;;;;;5175704;27;20070;-83
2022/04/08 12:38:24;;;;;;;7.70;1.57;;;9.90;94.40;;;;;;5176451;27;20052;-83
2022/04/08 12:40:50;;;;;;;8.47;1.40;;;10.00;94.70;;;;;;5179985;27;20310;-83
2022/04/08 12:43:15;;;;;;;5.57;1.30;;;10.10;94.30;;;;;;5175945;27;20763;-83
2022/04/08 12:45:42;;;;;;;8.17;1.20;;;10.10;90.50;;;;;;5175684;27;20460;-83
2022/04/08 12:48:08;;;;;;;10.67;1.37;;;10.20;86.90;;;;;;5175702;27;20074;-83
2022/04/08 12:50:34;;;;;;;8.33;1.50;;;10.20;85.00;;;;;;5175487;27;20282;-83
2022/04/08 12:53:00;;;;;;;6.20;1.23;;;10.10;85.10;;;;;;5157529;27;20283;-83
2022/04/08 12:55:26;;;;;;;7.23;1.40;;;10.20;84.60;;;;;;5157419;27;20155;-83
2022/04/08 12:57:53;;;;;;;6.27;1.30;;;10.10;83.80;;;;;;5175414;27;20298;-83
2022/04/08 13:00:19;;;;;;;13.60;2.73;;;10.10;83.30;;;;;;5157287;27;20280;-83
2022/04/08 13:02:45;;;;;;;6.40;1.87;;;10.10;82.20;;;;;;5175240;27;20378;-83